»·PEaware :: N569RA KSMX-KBFL

N569RA :: KSMX-KBFL

FLIGHT INFORMATION

Flight Status: Arrived
Operator: Privately registered:
United States
More flights under this callsign
Pilot: Richard Askham (15668)
Aircraft: CESSNA 172 SKYHAWK
(C172)
More flights by this aircraft type
Origin: KSMX Santa Maria Pub/Capt Hancock
United States
Destination: KBFL Meadows
United States
More flights between these airports :: More routes between these airports
Route:
File this flight plan on PilotEdge
Remarks: CAT-05
Altitude:
(Current/Filed)
7,500ft
Speed:
(Current/Filed)
140kts
Departed: 10-Jun-17 01:44 PM
Arrived: 10-Jun-17 02:27 PM
Distance/Time
Traveled:
76nm/0:43
Distance/Time
To Go:
Arrived

Flight Plot

Page will automatically refresh every two minutes.


Map Options




Map Legend


Flown Route
Filed Route
Departure Airport
Arrival Airport
Navaid (VOR, NDB)
Fix

Horizontal Profiles

Position Reports

Time Latitude Longitude Heading Altitude Ground
Speed
10-Jun-17 13:23 34.900563 -120.451318 228 265ft 0kts
10-Jun-17 13:24 34.900563 -120.451318 228 265ft 0kts
10-Jun-17 13:25 34.900563 -120.451318 228 265ft 0kts
10-Jun-17 13:26 34.900563 -120.451318 228 265ft 0kts
10-Jun-17 13:27 34.900563 -120.451318 228 265ft 0kts
10-Jun-17 13:28 34.900563 -120.451318 229 265ft 0kts
10-Jun-17 13:29 34.900563 -120.451318 229 265ft 0kts
10-Jun-17 13:30 34.900563 -120.451318 229 265ft 0kts
10-Jun-17 13:31 34.900563 -120.451318 229 265ft 0kts
10-Jun-17 13:32 34.900563 -120.451318 229 265ft 0kts
10-Jun-17 13:33 34.900563 -120.451318 229 265ft 0kts
10-Jun-17 13:34 34.900563 -120.451318 229 265ft 0kts
10-Jun-17 13:35 34.900563 -120.451318 229 265ft 0kts
10-Jun-17 13:36 34.900563 -120.451318 229 265ft 0kts
10-Jun-17 13:37 34.900563 -120.451318 229 265ft 0kts
10-Jun-17 13:38 34.900563 -120.451318 229 265ft 0kts
10-Jun-17 13:39 34.900577 -120.451466 302 265ft 5kts
10-Jun-17 13:40 34.900292 -120.452282 135 265ft 21kts
10-Jun-17 13:41 34.895430 -120.446448 134 265ft 23kts
10-Jun-17 13:42 34.893861 -120.444676 216 265ft 0kts
10-Jun-17 13:43 34.893190 -120.444947 184 265ft 0kts
10-Jun-17 13:44 34.893190 -120.444947 184 265ft 0kts
10-Jun-17 13:45 34.892928 -120.445926 313 265ft 16kts
10-Jun-17 13:46 34.906101 -120.452895 27 1022ft 87kts
10-Jun-17 13:47 34.916592 -120.421189 65 1888ft 112kts
10-Jun-17 13:48 34.927394 -120.384231 60 2555ft 118kts
10-Jun-17 13:49 34.940238 -120.348108 57 3232ft 117kts
10-Jun-17 13:50 34.953709 -120.312516 56 3911ft 115kts
10-Jun-17 13:51 34.967234 -120.277375 56 4592ft 114kts
10-Jun-17 13:52 34.980239 -120.243666 55 5374ft 105kts
10-Jun-17 13:53 34.991631 -120.214231 54 6232ft 91kts
10-Jun-17 13:54 35.001892 -120.187739 54 7093ft 83kts
10-Jun-17 13:55 35.012620 -120.160396 58 7542ft 114kts
10-Jun-17 13:56 35.027244 -120.122215 60 7524ft 130kts
10-Jun-17 13:57 35.042568 -120.082287 61 7520ft 131kts
10-Jun-17 13:58 35.057946 -120.042275 61 7519ft 131kts
10-Jun-17 13:59 35.073322 -120.002244 61 7518ft 131kts
10-Jun-17 14:00 35.088706 -119.962152 61 7519ft 131kts
10-Jun-17 14:01 35.103631 -119.923231 61 7519ft 131kts
10-Jun-17 14:02 35.119028 -119.883129 61 7519ft 131kts
10-Jun-17 14:03 35.134420 -119.842850 62 7480ft 134kts
10-Jun-17 14:04 35.149916 -119.802280 62 7471ft 131kts
10-Jun-17 14:05 35.165236 -119.762148 62 7469ft 131kts
10-Jun-17 14:06 35.180547 -119.721904 62 7475ft 130kts
10-Jun-17 14:07 35.195721 -119.682008 61 7484ft 130kts
10-Jun-17 14:08 35.210803 -119.642284 61 7232ft 129kts
10-Jun-17 14:09 35.225858 -119.602924 59 6942ft 128kts
10-Jun-17 14:10 35.241578 -119.564510 59 6655ft 127kts
10-Jun-17 14:11 35.256455 -119.525850 59 6368ft 126kts
10-Jun-17 14:12 35.271172 -119.486958 60 5918ft 125kts
10-Jun-17 14:13 35.285573 -119.448816 60 5432ft 123kts
10-Jun-17 14:14 35.299874 -119.410922 60 4946ft 123kts
10-Jun-17 14:15 35.313856 -119.373811 60 4548ft 117kts
10-Jun-17 14:16 35.326501 -119.340253 60 4350ft 113kts
10-Jun-17 14:17 35.339505 -119.305820 63 4154ft 108kts
10-Jun-17 14:18 35.351717 -119.273181 63 3952ft 105kts
10-Jun-17 14:19 35.363793 -119.240984 63 3753ft 104kts
10-Jun-17 14:20 35.375695 -119.209237 63 3556ft 103kts
10-Jun-17 14:21 35.387672 -119.177274 63 3357ft 103kts
10-Jun-17 14:22 35.399610 -119.145395 64 3159ft 103kts
10-Jun-17 14:23 35.411517 -119.113589 62 2894ft 106kts
10-Jun-17 14:24 35.413327 -119.084450 156 2265ft 103kts
10-Jun-17 14:25 35.392893 -119.070140 140 1813ft 78kts
10-Jun-17 14:26 35.396238 -119.048275 48 1344ft 82kts
10-Jun-17 14:27 35.410987 -119.035268 339 1066ft 61kts
10-Jun-17 14:28 35.424119 -119.047902 315 680ft 62kts
10-Jun-17 14:29 35.433960 -119.059863 315 482ft 24kts
10-Jun-17 14:30 35.433076 -119.059988 135 480ft 20kts
10-Jun-17 14:31 35.429645 -119.057626 225 473ft 8kts
10-Jun-17 14:32 35.429586 -119.057744 276 473ft 0kts

Navigation Log

Ident Type
1. KSMX Airport
2. KBFL Airport